KANK

Harriet Alexander Field Airport

Salida, Colorado, USA
METAR KANK 222135Z AUTO 22006KT 10SM CLR 19/M07 A3020 RMK AO1 T01871072
Observed Flight Rules
Apr-22 @ 21:35 UTC (15 minutes ago) Visual Flight Rules
Wind Visibility Clouds
220° at 6 knots 10 miles
  • Clear skies
Temperatures Readings
Current 19°C / 66°F
Dewpoint -7°C / 19°F
Humidity 17%
Altimeter 30.2" Hg
Pressure 1023 hPa
Elevation 2293
METAR KANK 222135Z AUTO 22006KT 10SM CLR 19/M07 A3020 RMK AO1 T01871072
Observed Flight Rules
Apr-22 @ 21:35 UTC
(15 minutes ago)
VFR
Wind Visibility
220° at 6 knots 10 miles
Clouds
  • Clear skies
Temperature Dewpoint
19°C / 66°F -7°C / 19°F
Humidity Altimeter Pressure
17% 30.2" Hg 1023 hPa